Time;durP1;ratioP1;P1;durP2;ratioP2;P2;SDS_P1;SDS_P2;PMS_P1;PMS_P2;Temp;Humidity;BMP_temperature;BMP_pressure;BME280_temperature;BME280_humidity;BME280_pressure;Samples;Min_cycle;Max_cycle;Signal;HPM_P1;HPM_P2
2021/12/06 04:07:56;;;;;;;;;;;1.70;99.90;;;;;;5767743;23;19930;-74
2021/12/06 04:10:25;;;;;;;;;;;1.70;99.90;;;;;;5001858;28;19910;-79
2021/12/06 04:12:52;;;;;;;;;;;1.60;99.90;;;;;;5001672;28;19918;-72
2021/12/06 04:15:19;;;;;;;;;;;1.60;99.90;;;;;;4985334;28;19910;-74
2021/12/06 04:17:46;;;;;;;;;;;1.40;99.90;;;;;;5001801;28;19933;-74
2021/12/06 04:20:13;;;;;;;;;;;1.40;99.90;;;;;;5001682;28;19918;-68
2021/12/06 04:22:41;;;;;;;;;;;1.40;99.90;;;;;;4984979;28;19938;-73
2021/12/06 04:25:12;;;;;;;;;;;1.30;99.90;;;;;;5001623;28;19910;-72
2021/12/06 04:27:40;;;;;;;;;;;1.20;99.90;;;;;;5001429;28;19910;-72
2021/12/06 04:30:08;;;;;;;;;;;1.20;99.90;;;;;;4996521;28;19957;-77
2021/12/06 04:32:35;;;;;;;;;;;1.20;99.90;;;;;;5001009;28;19938;-71
2021/12/06 04:35:02;;;;;;;;;;;1.10;99.90;;;;;;5000814;28;19922;-80
2021/12/06 04:37:29;;;;;;;;;;;1.10;99.90;;;;;;5000961;28;19933;-76
2021/12/06 04:39:56;;;;;;;;;;;1.10;99.90;;;;;;4996379;28;19950;-81
2021/12/06 04:42:24;;;;;;;;;;;1.20;99.90;;;;;;4984630;28;19910;-78
2021/12/06 04:49:58;;;;;;;;;;;1.20;99.90;;;;;;5583124;23;19948;-68
2021/12/06 04:52:25;;;;;;;;;;;1.20;99.90;;;;;;5001217;28;19911;-68
2021/12/06 04:54:53;;;;;;;;;;;1.20;99.90;;;;;;5001347;28;19917;-67
2021/12/06 04:57:22;;;;;;;;;;;1.20;99.90;;;;;;5001226;28;19917;-72
2021/12/06 05:12:47;;;;;;;;;;;1.40;99.90;;;;;;5571781;23;20071;-79
2021/12/06 05:15:14;;;;;;;;;;;1.50;99.90;;;;;;5022284;28;19913;-75
2021/12/06 05:17:43;;;;;;;;;;;1.70;99.90;;;;;;5020160;28;19921;-76
2021/12/06 05:20:10;;;;;;;;;;;1.80;99.90;;;;;;5025661;28;19909;-71
2021/12/06 05:22:37;;;;;;;;;;;1.80;99.90;;;;;;5045339;23;19910;-79
2021/12/06 05:25:05;;;;;;;;;;;1.90;99.90;;;;;;4981642;28;19925;-80
2021/12/06 05:27:34;;;;;;;;;;;1.90;99.90;;;;;;4975398;28;19911;-81
2021/12/06 05:30:04;;;;;;;;;;;1.90;99.90;;;;;;4978571;28;19910;-80
2021/12/06 05:32:34;;;;;;;;;;;2.00;99.90;;;;;;4978123;28;19932;-76
2021/12/06 05:35:06;;;;;;;;;;;2.00;99.90;;;;;;4980687;28;19911;-75
2021/12/06 05:39:58;;;;;;;;;;;1.90;99.90;;;;;;5493883;23;19972;-79
2021/12/06 05:42:26;;;;;;;;;;;2.00;99.90;;;;;;4997171;28;20035;-79
2021/12/06 05:44:52;;;;;;;;;;;2.10;99.90;;;;;;4984096;28;19966;-80
2021/12/06 05:50:06;;;;;;;;;;;2.10;99.90;;;;;;4988268;28;19982;-79
2021/12/06 05:52:33;;;;;;;;;;;2.10;99.90;;;;;;4979721;28;19915;-80
2021/12/06 05:54:59;;;;;;;;;;;2.20;99.90;;;;;;4986390;28;19961;-81
2021/12/06 05:57:26;;;;;;;;;;;2.10;99.90;;;;;;4979054;28;19954;-80
2021/12/06 05:59:53;;;;;;;;;;;2.20;99.90;;;;;;4980847;28;19934;-79
2021/12/06 06:02:22;;;;;;;;;;;2.00;99.90;;;;;;4993862;28;19911;-73
2021/12/06 06:04:49;;;;;;;;;;;1.90;99.90;;;;;;4995078;28;19925;-79
2021/12/06 06:07:17;;;;;;;;;;;1.90;99.90;;;;;;4997776;28;20029;-79
2021/12/06 06:09:44;;;;;;;;;;;1.80;99.90;;;;;;4979841;28;19914;-81
2021/12/06 06:12:10;;;;;;;;;;;1.80;99.90;;;;;;4997046;28;19934;-81
2021/12/06 06:14:38;;;;;;;;;;;1.90;99.90;;;;;;4998690;28;19953;-81
2021/12/06 06:17:10;;;;;;;;;;;1.90;99.90;;;;;;4999676;28;19911;-80
2021/12/06 06:19:39;;;;;;;;;;;1.80;99.90;;;;;;4999354;28;19926;-80
2021/12/06 06:22:06;;;;;;;;;;;1.90;99.90;;;;;;4999582;28;19938;-74
2021/12/06 06:24:33;;;;;;;;;;;1.90;99.90;;;;;;4989413;28;19927;-80
2021/12/06 06:27:04;;;;;;;;;;;2.00;99.90;;;;;;4996288;28;19985;-79
2021/12/06 06:29:39;;;;;;;;;;;2.00;99.90;;;;;;4991412;28;19933;-80
2021/12/06 06:32:06;;;;;;;;;;;2.20;99.90;;;;;;4992327;28;19914;-79
2021/12/06 06:37:20;;;;;;;;;;;2.20;99.90;;;;;;4982651;28;19926;-79
2021/12/06 06:39:47;;;;;;;;;;;2.20;99.90;;;;;;4967158;29;19930;-79
2021/12/06 06:42:23;;;;;;;;;;;2.10;99.90;;;;;;4975890;28;19942;-80
2021/12/06 06:45:00;;;;;;;;;;;2.20;99.90;;;;;;4972409;28;19916;-77
2021/12/06 06:47:27;;;;;;;;;;;2.00;99.90;;;;;;4978952;28;19910;-71
2021/12/06 06:57:31;;;;;;;;;;;2.00;99.90;;;;;;5862352;23;2120537;-71
2021/12/06 06:59:58;;;;;;;;;;;2.00;99.90;;;;;;5003197;28;19914;-70
2021/12/06 07:02:26;;;;;;;;;;;2.00;99.90;;;;;;5003164;28;19934;-77
2021/12/06 07:07:28;;;;;;;;;;;1.90;99.90;;;;;;5228527;23;19910;-80
2021/12/06 07:09:55;;;;;;;;;;;1.90;99.90;;;;;;4974797;28;19918;-72
2021/12/06 07:12:22;;;;;;;;;;;1.90;99.90;;;;;;4966512;28;19914;-75
2021/12/06 07:14:50;;;;;;;;;;;1.90;99.90;;;;;;4977922;28;19927;-80
2021/12/06 07:17:17;;;;;;;;;;;1.90;99.90;;;;;;4976664;28;19911;-79
2021/12/06 07:19:44;;;;;;;;;;;2.00;99.90;;;;;;4980248;28;19930;-80
2021/12/06 07:22:14;;;;;;;;;;;2.00;99.90;;;;;;4963959;29;19917;-80
2021/12/06 07:24:43;;;;;;;;;;;1.90;99.90;;;;;;4958918;28;19915;-79
2021/12/06 07:27:10;;;;;;;;;;;1.80;99.90;;;;;;4949168;29;19934;-79
2021/12/06 07:29:37;;;;;;;;;;;1.90;99.90;;;;;;4952317;29;19990;-78
2021/12/06 07:32:06;;;;;;;;;;;1.90;99.90;;;;;;4961446;28;20387;-78
2021/12/06 07:34:34;;;;;;;;;;;1.80;99.90;;;;;;4948276;29;19937;-77
2021/12/06 07:37:01;;;;;;;;;;;1.90;99.90;;;;;;4957964;28;20215;-77
2021/12/06 07:39:28;;;;;;;;;;;2.00;99.90;;;;;;4945130;29;19930;-78
2021/12/06 07:41:54;;;;;;;;;;;1.90;99.90;;;;;;4946867;29;19982;-77
2021/12/06 07:44:21;;;;;;;;;;;1.90;99.90;;;;;;4942812;29;19934;-79
2021/12/06 07:46:50;;;;;;;;;;;1.80;99.90;;;;;;4944022;29;19933;-75
2021/12/06 07:49:18;;;;;;;;;;;1.80;99.90;;;;;;4947868;29;19979;-74
2021/12/06 07:51:45;;;;;;;;;;;1.70;99.90;;;;;;4950727;29;20128;-76
2021/12/06 07:54:13;;;;;;;;;;;1.70;99.90;;;;;;4953777;29;19927;-79
2021/12/06 07:56:40;;;;;;;;;;;1.80;99.90;;;;;;4951645;29;19927;-74
2021/12/06 07:59:07;;;;;;;;;;;1.80;99.90;;;;;;4945636;29;20405;-74
2021/12/06 08:01:33;;;;;;;;;;;1.80;99.90;;;;;;4944197;28;19931;-77
2021/12/06 08:04:00;;;;;;;;;;;1.90;99.90;;;;;;4949925;28;19927;-75
2021/12/06 08:06:28;;;;;;;;;;;2.00;99.90;;;;;;4941584;29;20372;-74
2021/12/06 08:08:55;;;;;;;;;;;2.00;99.90;;;;;;4946207;28;19926;-73
2021/12/06 08:11:22;;;;;;;;;;;1.90;99.90;;;;;;4949017;29;19951;-74
2021/12/06 08:13:53;;;;;;;;;;;1.90;99.90;;;;;;4942370;29;19968;-75
2021/12/06 08:16:21;;;;;;;;;;;1.90;99.90;;;;;;4947578;28;19932;-74
2021/12/06 08:18:48;;;;;;;;;;;2.00;99.90;;;;;;4942784;28;19927;-73
2021/12/06 08:21:16;;;;;;;;;;;1.90;99.90;;;;;;4944888;29;19927;-74
2021/12/06 08:23:44;;;;;;;;;;;1.80;99.90;;;;;;4948983;29;19930;-74
2021/12/06 08:26:11;;;;;;;;;;;1.70;99.90;;;;;;4942820;29;19927;-74
2021/12/06 08:28:39;;;;;;;;;;;1.80;99.90;;;;;;4941372;29;19933;-74
2021/12/06 08:31:06;;;;;;;;;;;1.70;99.90;;;;;;4950640;29;20014;-74
2021/12/06 08:33:34;;;;;;;;;;;1.70;99.90;;;;;;4946840;29;19926;-75
2021/12/06 08:36:00;;;;;;;;;;;1.80;99.90;;;;;;4944769;29;20001;-76
2021/12/06 08:38:28;;;;;;;;;;;1.70;99.90;;;;;;4940624;28;19930;-74
2021/12/06 08:40:59;;;;;;;;;;;1.70;99.90;;;;;;4950489;29;19937;-77
2021/12/06 08:43:25;;;;;;;;;;;1.70;99.90;;;;;;4943114;29;19926;-78
2021/12/06 08:45:53;;;;;;;;;;;1.70;99.90;;;;;;4942431;29;20407;-77
2021/12/06 08:48:22;;;;;;;;;;;1.70;99.90;;;;;;4947450;28;19927;-76
2021/12/06 08:50:49;;;;;;;;;;;1.80;99.90;;;;;;4950654;29;19953;-74
2021/12/06 08:53:16;;;;;;;;;;;1.90;99.90;;;;;;4948513;29;19932;-75
2021/12/06 08:55:43;;;;;;;;;;;1.90;99.90;;;;;;4943150;29;19926;-74
2021/12/06 08:58:11;;;;;;;;;;;1.90;99.90;;;;;;4943774;28;20384;-74
2021/12/06 09:00:39;;;;;;;;;;;2.00;99.90;;;;;;4943104;29;20005;-76
2021/12/06 09:03:06;;;;;;;;;;;2.00;99.90;;;;;;4946472;29;19931;-74
2021/12/06 09:05:35;;;;;;;;;;;2.00;99.90;;;;;;4939591;29;19966;-74
2021/12/06 09:08:03;;;;;;;;;;;1.90;99.90;;;;;;4938192;28;19926;-75
2021/12/06 09:10:30;;;;;;;;;;;2.00;99.90;;;;;;4947480;29;19974;-74
2021/12/06 09:12:56;;;;;;;;;;;2.00;99.90;;;;;;4945186;28;19933;-74
2021/12/06 09:15:25;;;;;;;;;;;2.00;99.90;;;;;;4946084;28;19926;-74
2021/12/06 09:17:53;;;;;;;;;;;2.00;99.90;;;;;;4940188;29;19927;-74
2021/12/06 09:20:21;;;;;;;;;;;2.10;99.90;;;;;;4946571;29;19933;-77
2021/12/06 09:22:48;;;;;;;;;;;2.20;99.90;;;;;;4948919;29;19974;-75
2021/12/06 09:25:15;;;;;;;;;;;2.30;99.90;;;;;;4937514;29;19934;-77
2021/12/06 09:27:43;;;;;;;;;;;2.40;99.90;;;;;;4953963;28;19914;-70
2021/12/06 09:30:12;;;;;;;;;;;2.40;99.90;;;;;;4961777;28;19942;-69
2021/12/06 09:32:40;;;;;;;;;;;2.40;99.90;;;;;;4962047;28;19911;-69
2021/12/06 09:35:10;;;;;;;;;;;2.40;99.90;;;;;;4961939;28;19995;-69
2021/12/06 09:37:39;;;;;;;;;;;2.30;99.90;;;;;;4961834;28;19935;-72
2021/12/06 09:40:08;;;;;;;;;;;2.40;99.90;;;;;;4961705;28;19922;-70
2021/12/06 09:42:36;;;;;;;;;;;2.50;99.90;;;;;;4961660;28;19935;-71
2021/12/06 09:45:04;;;;;;;;;;;2.50;99.90;;;;;;4961674;28;20002;-76
2021/12/06 09:47:31;;;;;;;;;;;2.60;99.90;;;;;;4969461;28;19938;-72
2021/12/06 09:49:59;;;;;;;;;;;2.70;99.90;;;;;;4980876;28;19915;-76
2021/12/06 09:52:26;;;;;;;;;;;2.80;99.90;;;;;;4980815;28;19990;-78
2021/12/06 09:54:53;;;;;;;;;;;3.10;99.90;;;;;;4980715;28;19949;-76
2021/12/06 09:57:20;;;;;;;;;;;3.10;99.90;;;;;;4970139;28;19942;-69
2021/12/06 09:59:47;;;;;;;;;;;3.30;99.90;;;;;;4961690;28;19911;-69
2021/12/06 10:02:15;;;;;;;;;;;3.30;99.90;;;;;;4961436;28;19946;-69
2021/12/06 10:04:46;;;;;;;;;;;3.40;99.90;;;;;;4961617;28;19978;-72
2021/12/06 10:07:14;;;;;;;;;;;3.50;99.90;;;;;;4961490;28;19917;-69
2021/12/06 10:09:41;;;;;;;;;;;3.60;99.90;;;;;;4961541;28;19969;-73
2021/12/06 10:12:08;;;;;;;;;;;3.70;99.90;;;;;;4978709;28;19918;-69
2021/12/06 10:14:36;;;;;;;;;;;3.60;99.90;;;;;;4980591;28;19934;-72
2021/12/06 10:17:03;;;;;;;;;;;3.60;99.90;;;;;;5127023;23;19934;-75
2021/12/06 10:19:30;;;;;;;;;;;3.60;99.90;;;;;;5021543;28;19909;-70
2021/12/06 10:21:57;;;;;;;;;;;3.50;99.90;;;;;;5019272;28;19934;-71
2021/12/06 10:27:03;;;;;;;;;;;3.70;99.90;;;;;;5154592;23;19911;-72
2021/12/06 10:29:35;;;;;;;;;;;3.70;99.90;;;;;;5479385;23;19926;-75
2021/12/06 10:32:01;;;;;;;;;;;3.70;99.90;;;;;;5002348;28;19973;-74
2021/12/06 10:34:29;;;;;;;;;;;3.70;99.90;;;;;;5003531;28;19926;-73
2021/12/06 10:36:56;;;;;;;;;;;3.70;99.90;;;;;;4992935;28;19946;-80
2021/12/06 10:39:23;;;;;;;;;;;3.50;99.90;;;;;;4989432;28;20020;-80
2021/12/06 10:41:51;;;;;;;;;;;3.40;99.90;;;;;;4982583;28;19969;-81
2021/12/06 10:44:19;;;;;;;;;;;3.50;99.90;;;;;;4989302;28;19965;-80
2021/12/06 10:46:48;;;;;;;;;;;3.70;99.90;;;;;;4986846;28;19945;-75
2021/12/06 10:51:41;;;;;;;;;;;3.90;99.90;;;;;;5284448;23;19910;-71
2021/12/06 10:54:16;;;;;;;;;;;4.00;99.90;;;;;;5002749;28;19910;-75
2021/12/06 10:56:46;;;;;;;;;;;4.10;99.90;;;;;;4981090;28;19911;-76
2021/12/06 11:12:21;;;;;;;;;;;4.20;99.90;;;;;;5869019;23;19930;-78
2021/12/06 11:14:48;;;;;;;;;;;4.20;99.90;;;;;;4992430;28;19918;-80
2021/12/06 11:17:18;;;;;;;;;;;4.30;99.90;;;;;;5002173;28;19918;-76
2021/12/06 11:19:46;;;;;;;;;;;4.40;99.90;;;;;;5034382;23;19922;-76
2021/12/06 11:22:16;;;;;;;;;;;4.50;99.90;;;;;;5003824;28;20618;-74
2021/12/06 11:24:46;;;;;;;;;;;4.60;99.90;;;;;;5013706;28;19917;-73
2021/12/06 11:27:13;;;;;;;;;;;4.60;99.90;;;;;;5016055;28;19924;-79
2021/12/06 11:29:43;;;;;;;;;;;4.60;99.90;;;;;;5010063;28;19933;-78
2021/12/06 11:32:11;;;;;;;;;;;4.80;99.90;;;;;;4999118;28;19930;-78
2021/12/06 11:34:39;;;;;;;;;;;4.90;99.90;;;;;;5011637;28;19941;-77
2021/12/06 11:37:11;;;;;;;;;;;5.00;99.90;;;;;;5009075;28;19910;-75
2021/12/06 11:42:23;;;;;;;;;;;5.40;99.90;;;;;;5578760;23;19938;-73
2021/12/06 11:53:05;;;;;;;;;;;5.90;99.90;;;;;;5178315;23;19910;-73
2021/12/06 11:58:19;;;;;;;;;;;6.00;99.90;;;;;;5398839;23;19925;-70
2021/12/06 12:00:46;;;;;;;;;;;5.90;99.90;;;;;;4976449;28;19918;-75
2021/12/06 12:03:13;;;;;;;;;;;5.90;99.90;;;;;;4980652;28;19910;-82
2021/12/06 12:05:40;;;;;;;;;;;5.80;99.90;;;;;;4981521;28;19954;-74
2021/12/06 12:08:11;;;;;;;;;;;5.80;99.90;;;;;;4965025;28;19998;-74
2021/12/06 12:21:00;;;;;;;;;;;5.90;99.90;;;;;;6093674;23;19916;-78
2021/12/06 12:23:32;;;;;;;;;;;5.90;99.90;;;;;;5000666;28;19933;-70
2021/12/06 12:39:26;;;;;;;;;;;5.90;99.90;;;;;;5144027;23;19910;-69
2021/12/06 12:41:54;;;;;;;;;;;5.80;99.90;;;;;;5020644;28;19933;-70
2021/12/06 12:47:12;;;;;;;;;;;5.90;99.90;;;;;;5069016;23;19978;-79
2021/12/06 12:49:43;;;;;;;;;;;5.80;99.90;;;;;;4998486;28;19910;-77
2021/12/06 12:57:38;;;;;;;;;;;5.80;99.90;;;;;;5455004;23;19910;-72
2021/12/06 13:00:06;;;;;;;;;;;5.80;99.90;;;;;;4993807;28;19910;-81
2021/12/06 13:02:34;;;;;;;;;;;5.80;99.90;;;;;;4981555;28;19911;-70
2021/12/06 13:05:11;;;;;;;;;;;5.90;99.90;;;;;;4981482;28;19910;-71
2021/12/06 13:29:12;;;;;;;;;;;5.90;99.90;;;;;;5387545;23;19948;-78
2021/12/06 13:31:39;;;;;;;;;;;5.80;99.90;;;;;;5000257;28;19910;-73
2021/12/06 13:39:33;;;;;;;;;;;5.70;99.90;;;;;;5342340;23;19918;-71
2021/12/06 13:44:40;;;;;;;;;;;5.80;99.90;;;;;;5257020;23;19934;-79
2021/12/06 13:47:10;;;;;;;;;;;5.80;99.90;;;;;;5239487;23;20012;-78
2021/12/06 13:52:43;;;;;;;;;;;5.80;99.90;;;;;;5710090;23;19926;-78
2021/12/06 13:55:21;;;;;;;;;;;5.90;99.90;;;;;;5016854;28;19970;-73
2021/12/06 13:57:49;;;;;;;;;;;5.90;99.90;;;;;;5019586;28;19961;-79
2021/12/06 14:02:57;;;;;;;;;;;5.70;99.90;;;;;;5279216;23;19934;-73
2021/12/06 14:05:25;;;;;;;;;;;5.80;99.90;;;;;;5042092;28;19913;-78
2021/12/06 14:07:52;;;;;;;;;;;5.70;99.90;;;;;;5040794;23;19969;-79
2021/12/06 14:10:20;;;;;;;;;;;5.70;99.90;;;;;;4998036;23;19989;-79
2021/12/06 14:20:24;;;;;;;;;;;5.80;99.90;;;;;;5069223;23;19941;-79
2021/12/06 14:22:50;;;;;;;;;;;5.80;99.90;;;;;;4996726;28;19922;-79
2021/12/06 14:25:19;;;;;;;;;;;5.70;99.90;;;;;;4986890;28;19982;-80
2021/12/06 14:27:46;;;;;;;;;;;5.70;99.90;;;;;;4983694;28;19926;-81
2021/12/06 14:32:54;;;;;;;;;;;5.70;99.90;;;;;;5355781;23;19914;-76
2021/12/06 14:35:25;;;;;;;;;;;5.60;99.90;;;;;;4996779;28;20255;-78
2021/12/06 14:37:53;;;;;;;;;;;5.60;99.90;;;;;;4989176;28;19917;-80
2021/12/06 14:40:21;;;;;;;;;;;5.50;99.90;;;;;;4998321;28;19930;-80
2021/12/06 14:45:18;;;;;;;;;;;5.50;99.90;;;;;;5608965;23;19926;-79
2021/12/06 14:47:54;;;;;;;;;;;5.50;99.90;;;;;;5019428;28;19914;-79
2021/12/06 14:52:58;;;;;;;;;;;5.40;99.90;;;;;;6077486;23;19921;-77
2021/12/06 14:55:37;;;;;;;;;;;5.40;99.90;;;;;;4979771;28;19910;-78
2021/12/06 14:58:05;;;;;;;;;;;5.40;99.90;;;;;;4983289;28;19938;-75
2021/12/06 15:00:33;;;;;;;;;;;5.40;99.90;;;;;;4979549;28;19935;-78
2021/12/06 15:03:01;;;;;;;;;;;5.40;99.90;;;;;;4965162;29;20017;-79
2021/12/06 15:05:30;;;;;;;;;;;5.40;99.90;;;;;;4961285;28;19926;-78
2021/12/06 15:08:00;;;;;;;;;;;5.40;99.90;;;;;;4978891;28;19926;-82
2021/12/06 15:10:27;;;;;;;;;;;5.40;99.90;;;;;;4972081;28;19954;-82
2021/12/06 15:18:06;;;;;;;;;;;5.30;99.90;;;;;;5330965;23;19910;-73
2021/12/06 15:20:35;;;;;;;;;;;5.30;99.90;;;;;;5008757;28;19949;-78
2021/12/06 15:23:07;;;;;;;;;;;5.30;99.90;;;;;;5001021;28;19942;-71
2021/12/06 15:31:08;;;;;;;;;;;5.30;99.90;;;;;;5123421;23;19927;-74
2021/12/06 15:33:36;;;;;;;;;;;5.30;99.90;;;;;;5002640;28;19926;-70
2021/12/06 15:36:04;;;;;;;;;;;5.20;99.90;;;;;;5002554;28;19917;-68
2021/12/06 15:38:34;;;;;;;;;;;5.30;99.90;;;;;;5010896;28;19914;-69
2021/12/06 15:41:02;;;;;;;;;;;5.30;99.90;;;;;;5018869;28;19989;-75
2021/12/06 15:43:30;;;;;;;;;;;5.30;99.90;;;;;;4991315;28;19910;-79
2021/12/06 15:45:59;;;;;;;;;;;5.30;99.90;;;;;;4999618;28;19926;-81
2021/12/06 15:54:07;;;;;;;;;;;5.30;99.90;;;;;;5755393;23;19934;-74
2021/12/06 15:56:34;;;;;;;;;;;5.30;99.90;;;;;;5020165;28;19933;-79
2021/12/06 15:59:02;;;;;;;;;;;5.20;99.90;;;;;;5021013;28;19937;-71
2021/12/06 16:04:04;;;;;;;;;;;5.20;99.90;;;;;;5894463;23;19921;-77
2021/12/06 16:06:32;;;;;;;;;;;5.20;99.90;;;;;;4997445;28;19981;-79
2021/12/06 16:08:59;;;;;;;;;;;5.20;99.90;;;;;;4986999;28;19930;-76
2021/12/06 16:11:27;;;;;;;;;;;5.30;99.90;;;;;;4965872;28;19927;-76
2021/12/06 16:13:54;;;;;;;;;;;5.20;99.90;;;;;;4966916;28;20017;-75
2021/12/06 16:16:22;;;;;;;;;;;5.30;99.90;;;;;;4976380;28;19926;-77
2021/12/06 16:18:51;;;;;;;;;;;5.30;99.90;;;;;;4968349;28;19970;-79
2021/12/06 16:21:23;;;;;;;;;;;5.20;99.90;;;;;;4991922;28;19958;-79
2021/12/06 16:23:50;;;;;;;;;;;5.20;99.90;;;;;;4988356;28;19918;-80
2021/12/06 16:26:18;;;;;;;;;;;5.20;99.90;;;;;;4974140;28;19927;-80
2021/12/06 16:28:55;;;;;;;;;;;5.20;99.90;;;;;;4989332;28;19965;-76
2021/12/06 16:31:23;;;;;;;;;;;5.10;99.90;;;;;;4972871;28;19910;-80
2021/12/06 16:36:39;;;;;;;;;;;5.00;99.90;;;;;;4983839;28;19917;-80
2021/12/06 16:39:20;;;;;;;;;;;4.90;99.90;;;;;;4981170;28;19942;-78
2021/12/06 16:41:48;;;;;;;;;;;4.90;99.90;;;;;;4985581;23;19910;-78
2021/12/06 16:44:20;;;;;;;;;;;4.70;99.90;;;;;;4962451;28;19930;-80
2021/12/06 16:46:48;;;;;;;;;;;4.70;99.90;;;;;;4967399;28;19946;-80
2021/12/06 16:49:24;;;;;;;;;;;4.60;99.90;;;;;;4963904;28;19960;-73
2021/12/06 16:51:52;;;;;;;;;;;4.60;99.90;;;;;;4962053;28;19942;-79
2021/12/06 16:54:29;;;;;;;;;;;4.50;99.90;;;;;;4969001;28;19917;-81
2021/12/06 16:56:57;;;;;;;;;;;4.40;99.90;;;;;;4977096;28;19933;-81
2021/12/06 16:59:25;;;;;;;;;;;4.30;99.90;;;;;;4971358;29;19961;-80
2021/12/06 17:02:00;;;;;;;;;;;4.30;99.90;;;;;;4980453;28;19981;-78
2021/12/06 17:04:27;;;;;;;;;;;4.20;99.90;;;;;;4972768;28;20022;-79
2021/12/06 17:06:54;;;;;;;;;;;4.10;99.90;;;;;;4982822;28;19930;-80
2021/12/06 17:09:22;;;;;;;;;;;4.10;99.90;;;;;;4964339;29;19933;-80
2021/12/06 17:11:51;;;;;;;;;;;4.10;99.90;;;;;;4961116;28;19915;-73
2021/12/06 17:14:19;;;;;;;;;;;4.10;99.90;;;;;;4968882;28;19911;-72
2021/12/06 17:16:49;;;;;;;;;;;4.10;99.90;;;;;;4980786;28;19934;-70
2021/12/06 17:19:17;;;;;;;;;;;4.00;99.90;;;;;;4977544;28;19914;-81
2021/12/06 17:21:44;;;;;;;;;;;3.90;99.90;;;;;;4976117;28;19910;-79
2021/12/06 17:26:44;;;;;;;;;;;3.90;99.90;;;;;;5632370;23;19913;-78
2021/12/06 17:29:16;;;;;;;;;;;3.80;99.90;;;;;;4990371;28;19953;-80
2021/12/06 17:31:45;;;;;;;;;;;3.80;99.90;;;;;;4992998;28;19910;-76
2021/12/06 17:34:14;;;;;;;;;;;3.80;99.90;;;;;;4999600;28;20013;-79
2021/12/06 17:36:42;;;;;;;;;;;3.80;99.90;;;;;;4995493;28;19930;-80
2021/12/06 17:41:46;;;;;;;;;;;3.80;99.90;;;;;;5071861;23;19920;-75
2021/12/06 17:44:14;;;;;;;;;;;3.70;99.90;;;;;;5018920;28;19929;-72
2021/12/06 17:46:41;;;;;;;;;;;3.60;99.90;;;;;;5018419;28;19910;-82
2021/12/06 17:56:49;;;;;;;;;;;3.50;99.90;;;;;;5921095;23;19930;-83
2021/12/06 17:59:16;;;;;;;;;;;3.50;99.90;;;;;;4986116;28;19917;-76
2021/12/06 18:01:47;;;;;;;;;;;3.40;99.90;;;;;;4999664;28;19941;-74
2021/12/06 18:04:17;;;;;;;;;;;3.40;99.90;;;;;;4999897;28;19924;-78
2021/12/06 18:29:59;;;;;;;;;;;3.20;99.90;;;;;;6024460;23;19928;-77
2021/12/06 18:32:26;;;;;;;;;;;3.20;99.90;;;;;;5873283;23;20019;-80
2021/12/06 18:34:53;;;;;;;;;;;3.10;99.90;;;;;;4994281;28;19934;-79
2021/12/06 18:40:01;;;;;;;;;;;3.10;99.90;;;;;;5530585;23;19918;-78
2021/12/06 18:42:29;;;;;;;;;;;3.20;99.90;;;;;;4999360;28;19921;-76
2021/12/06 18:45:00;;;;;;;;;;;3.10;99.90;;;;;;5739703;23;19921;-78
2021/12/06 18:50:04;;;;;;;;;;;3.20;99.90;;;;;;5346889;23;19922;-82
2021/12/06 18:52:31;;;;;;;;;;;3.20;99.90;;;;;;4988219;28;19911;-80
2021/12/06 18:54:58;;;;;;;;;;;3.20;99.90;;;;;;4962516;28;19997;-79
2021/12/06 18:57:25;;;;;;;;;;;3.10;99.90;;;;;;4974139;28;19965;-76
2021/12/06 18:59:52;;;;;;;;;;;3.10;99.90;;;;;;4967504;28;19957;-76
2021/12/06 19:02:22;;;;;;;;;;;3.10;99.90;;;;;;5271474;23;19936;-78
2021/12/06 19:04:49;;;;;;;;;;;3.10;99.90;;;;;;5358477;23;19934;-78
2021/12/06 19:07:16;;;;;;;;;;;3.10;99.90;;;;;;5022151;28;19941;-75
2021/12/06 19:12:11;;;;;;;;;;;3.00;99.90;;;;;;5782085;23;19910;-71
2021/12/06 19:14:39;;;;;;;;;;;3.00;99.90;;;;;;4998939;28;19923;-70
2021/12/06 19:17:08;;;;;;;;;;;3.00;99.90;;;;;;4983185;28;19918;-71
2021/12/06 19:19:37;;;;;;;;;;;3.10;99.90;;;;;;4982967;28;19927;-76
2021/12/06 19:27:16;;;;;;;;;;;2.90;99.90;;;;;;5624964;23;19910;-75
2021/12/06 19:32:18;;;;;;;;;;;2.90;99.90;;;;;;5294574;23;19924;-75
2021/12/06 19:37:23;;;;;;;;;;;2.80;99.90;;;;;;5711966;23;19917;-77
2021/12/06 19:45:01;;;;;;;;;;;2.90;99.90;;;;;;5579227;23;19926;-79
2021/12/06 19:47:31;;;;;;;;;;;2.90;99.90;;;;;;4979501;28;20034;-78
2021/12/06 19:49:58;;;;;;;;;;;2.90;99.90;;;;;;4987593;28;19989;-73
2021/12/06 19:52:28;;;;;;;;;;;2.90;99.90;;;;;;4978733;28;19926;-79
2021/12/06 19:54:55;;;;;;;;;;;2.90;99.90;;;;;;5003333;28;19953;-81
2021/12/06 19:57:22;;;;;;;;;;;2.90;99.90;;;;;;4991201;28;19926;-79
2021/12/06 19:59:49;;;;;;;;;;;2.90;99.90;;;;;;5009451;28;19977;-78
2021/12/06 20:02:16;;;;;;;;;;;2.80;99.90;;;;;;4988613;28;20369;-79
2021/12/06 20:04:43;;;;;;;;;;;2.90;99.90;;;;;;4984742;28;19973;-80
2021/12/06 20:07:10;;;;;;;;;;;2.80;99.90;;;;;;5007185;28;19958;-80
2021/12/06 20:12:04;;;;;;;;;;;2.90;99.90;;;;;;5306936;23;20006;-69
2021/12/06 20:19:31;;;;;;;;;;;2.80;99.90;;;;;;5691279;23;19921;-80
2021/12/06 20:21:58;;;;;;;;;;;2.70;99.90;;;;;;4991985;28;19910;-77
2021/12/06 20:24:26;;;;;;;;;;;2.80;99.90;;;;;;5001310;28;19918;-76
2021/12/06 20:26:53;;;;;;;;;;;2.70;99.90;;;;;;4999028;28;19934;-68
2021/12/06 20:38:10;;;;;;;;;;;2.70;99.90;;;;;;4983652;23;19934;-72
2021/12/06 20:40:37;;;;;;;;;;;2.70;99.90;;;;;;4981419;28;19926;-77
2021/12/06 20:43:05;;;;;;;;;;;2.70;99.90;;;;;;4997745;28;19931;-74
2021/12/06 20:45:33;;;;;;;;;;;2.70;99.90;;;;;;4988967;28;20029;-78
2021/12/06 20:48:01;;;;;;;;;;;2.70;99.90;;;;;;4999557;28;19910;-77
2021/12/06 20:50:28;;;;;;;;;;;2.70;99.90;;;;;;4999994;28;19949;-77
2021/12/06 20:52:56;;;;;;;;;;;2.60;99.90;;;;;;5000581;28;19937;-80
2021/12/06 20:57:59;;;;;;;;;;;2.50;99.90;;;;;;5854515;23;19930;-80
2021/12/06 21:18:35;;;;;;;;;;;2.60;99.90;;;;;;5035663;23;19922;-78
2021/12/06 21:21:02;;;;;;;;;;;2.50;99.90;;;;;;5000763;28;19917;-75
2021/12/06 21:28:25;;;;;;;;;;;2.60;99.90;;;;;;5310558;23;19910;-82
2021/12/06 21:33:21;;;;;;;;;;;2.50;99.90;;;;;;4998515;28;19914;-75
2021/12/06 21:35:49;;;;;;;;;;;2.50;99.90;;;;;;5000418;28;19911;-81
2021/12/06 21:43:20;;;;;;;;;;;2.40;99.90;;;;;;5266015;23;19910;-82
2021/12/06 21:45:47;;;;;;;;;;;2.50;99.90;;;;;;4987752;28;19930;-81
2021/12/06 21:48:14;;;;;;;;;;;2.50;99.90;;;;;;4989433;28;19921;-82
2021/12/06 21:50:41;;;;;;;;;;;2.60;99.90;;;;;;5000074;28;19933;-77
2021/12/06 21:53:10;;;;;;;;;;;2.60;99.90;;;;;;4999572;28;19926;-82
2021/12/06 21:55:37;;;;;;;;;;;2.50;99.90;;;;;;4973043;28;19978;-83
2021/12/06 21:58:05;;;;;;;;;;;2.40;99.90;;;;;;4991728;28;19933;-79
2021/12/06 22:00:32;;;;;;;;;;;2.40;99.90;;;;;;4992066;28;19910;-83
2021/12/06 22:03:05;;;;;;;;;;;2.60;99.90;;;;;;4999370;28;19930;-79
2021/12/06 22:05:32;;;;;;;;;;;2.70;99.90;;;;;;4980166;28;19950;-83
2021/12/06 22:07:59;;;;;;;;;;;2.50;99.90;;;;;;4978844;28;19910;-73
2021/12/06 22:10:28;;;;;;;;;;;2.50;99.90;;;;;;4991299;28;19916;-75
2021/12/06 22:12:55;;;;;;;;;;;2.60;99.90;;;;;;4983595;28;19910;-81
2021/12/06 22:15:22;;;;;;;;;;;2.60;99.90;;;;;;4994160;28;19910;-79
2021/12/06 22:17:51;;;;;;;;;;;2.60;99.90;;;;;;4980719;28;19910;-77
2021/12/06 22:20:18;;;;;;;;;;;2.80;99.90;;;;;;4964567;28;20048;-72
2021/12/06 22:22:48;;;;;;;;;;;2.80;99.90;;;;;;4992693;28;19952;-80
2021/12/06 22:25:16;;;;;;;;;;;2.90;99.90;;;;;;4986888;28;19941;-82
2021/12/06 22:27:45;;;;;;;;;;;3.00;99.90;;;;;;5003539;28;19910;-83
2021/12/06 22:30:12;;;;;;;;;;;3.00;99.90;;;;;;4990479;28;19910;-83
2021/12/06 22:32:41;;;;;;;;;;;3.00;99.90;;;;;;5003280;28;19934;-84
2021/12/06 22:35:09;;;;;;;;;;;3.10;99.90;;;;;;4979457;28;19910;-78
2021/12/06 22:37:36;;;;;;;;;;;3.10;99.90;;;;;;4998577;28;19958;-83
2021/12/06 22:40:05;;;;;;;;;;;3.20;99.90;;;;;;5003172;28;19961;-81
2021/12/06 22:42:31;;;;;;;;;;;3.20;99.90;;;;;;5002821;28;19911;-82
2021/12/06 22:45:00;;;;;;;;;;;3.30;99.90;;;;;;4984966;28;19929;-85
2021/12/06 22:50:02;;;;;;;;;;;3.40;99.90;;;;;;5063119;23;19911;-78
2021/12/06 22:52:29;;;;;;;;;;;3.60;99.90;;;;;;4998320;28;19917;-81
2021/12/06 22:54:56;;;;;;;;;;;3.60;99.90;;;;;;5003148;28;19922;-78
2021/12/06 22:57:22;;;;;;;;;;;3.80;99.90;;;;;;5002824;28;19994;-76
2021/12/06 22:59:54;;;;;;;;;;;3.60;99.90;;;;;;5003071;28;19921;-84
2021/12/06 23:02:22;;;;;;;;;;;3.70;99.90;;;;;;4988696;28;19910;-85
2021/12/06 23:04:50;;;;;;;;;;;3.70;99.90;;;;;;4990778;28;19945;-83
2021/12/06 23:07:17;;;;;;;;;;;3.60;99.90;;;;;;4982144;28;19962;-74
2021/12/06 23:09:44;;;;;;;;;;;3.60;99.90;;;;;;4983569;28;19910;-79
2021/12/06 23:12:16;;;;;;;;;;;3.60;99.90;;;;;;4983502;28;19917;-79
2021/12/06 23:14:44;;;;;;;;;;;3.60;99.90;;;;;;4996440;28;19942;-76
2021/12/06 23:17:11;;;;;;;;;;;3.60;99.90;;;;;;5001264;28;19937;-82
2021/12/06 23:19:41;;;;;;;;;;;3.60;99.90;;;;;;5002885;28;19934;-70
2021/12/06 23:22:10;;;;;;;;;;;3.60;99.90;;;;;;5002918;28;19938;-71
2021/12/06 23:24:37;;;;;;;;;;;3.60;99.90;;;;;;5003057;28;19910;-72
2021/12/06 23:27:03;;;;;;;;;;;3.60;99.90;;;;;;5002410;28;19910;-75